createdAt,value
2024-03-01T00:00:06.541Z,36.10
2024-03-01T00:02:08.430Z,39.03
2024-03-01T00:04:10.305Z,38.13
2024-03-01T00:06:12.224Z,35.30
2024-03-01T00:08:14.738Z,36.47
2024-03-01T00:10:16.644Z,38.45
2024-03-01T00:12:18.454Z,42.17
2024-03-01T00:14:20.870Z,43.20
2024-03-01T00:16:22.718Z,36.17
2024-03-01T00:18:25.088Z,42.25
2024-03-01T00:20:26.934Z,40.22
2024-03-01T00:22:29.311Z,42.38
2024-03-01T00:24:31.056Z,40.60
2024-03-01T00:26:32.961Z,44.47
2024-03-01T00:28:35.729Z,46.50
2024-03-01T00:30:37.730Z,42.53
2024-03-01T00:32:39.650Z,44.38
2024-03-01T00:34:41.451Z,51.28
2024-03-01T00:36:43.264Z,42.13
2024-03-01T00:38:45.371Z,44.28
2024-03-01T00:40:47.278Z,42.47
2024-03-01T00:42:49.240Z,43.15
2024-03-01T00:44:51.148Z,41.85
2024-03-01T00:46:52.963Z,43.30
2024-03-01T00:48:56.064Z,48.90
2024-03-01T00:50:58.315Z,45.35
2024-03-01T00:53:00.325Z,43.30
2024-03-01T00:55:02.293Z,48.85
2024-03-01T00:57:04.062Z,46.50
2024-03-01T00:59:05.941Z,46.90
2024-03-01T01:01:08.397Z,53.63
2024-03-01T01:03:10.272Z,39.95
2024-03-01T01:05:12.745Z,40.72
2024-03-01T01:07:14.491Z,43.78
2024-03-01T01:09:16.379Z,39.65
2024-03-01T01:11:18.208Z,46.85
2024-03-01T01:13:19.935Z,43.03
2024-03-01T01:15:22.022Z,42.33
2024-03-01T01:17:23.860Z,44.42
2024-03-01T01:19:25.885Z,47.50
2024-03-01T01:21:28.000Z,43.05
2024-03-01T01:23:30.072Z,42.90
2024-03-01T01:25:32.168Z,39.75
2024-03-01T01:27:33.968Z,40.83
2024-03-01T01:29:35.953Z,40.67
2024-03-01T01:31:37.950Z,44.67
2024-03-01T01:33:39.721Z,40.22
2024-03-01T01:35:42.272Z,41.90
2024-03-01T01:37:44.748Z,43.33
2024-03-01T01:39:46.498Z,45.90
2024-03-01T01:41:48.429Z,44.05
2024-03-01T01:43:50.138Z,46.05
2024-03-01T01:45:52.442Z,46.97
2024-03-01T01:47:54.370Z,45.30
2024-03-01T01:49:56.254Z,44.33
2024-03-01T01:51:58.474Z,42.88
2024-03-01T01:54:00.632Z,44.40
2024-03-01T01:56:02.805Z,46.78
2024-03-01T01:58:05.065Z,43.45
2024-03-01T02:00:08.462Z,50.25
2024-03-01T02:02:10.369Z,41.60
2024-03-01T02:04:12.462Z,42.78
2024-03-01T02:06:14.493Z,42.35
2024-03-01T02:08:16.303Z,43.95
2024-03-01T02:10:18.752Z,49.05
2024-03-01T02:12:21.253Z,48.60
2024-03-01T02:14:23.121Z,49.50
2024-03-01T02:16:25.226Z,45.00
2024-03-01T02:18:27.383Z,48.10
2024-03-01T02:20:32.452Z,45.25
2024-03-01T02:22:34.900Z,43.42
2024-03-01T02:24:36.754Z,46.72
2024-03-01T02:26:38.684Z,44.20
2024-03-01T02:28:45.293Z,51.72
2024-03-01T02:30:47.372Z,47.08
2024-03-01T02:32:49.384Z,47.40
2024-03-01T02:34:51.174Z,47.13
2024-03-01T02:36:53.048Z,56.75
2024-03-01T02:38:55.022Z,49.42
2024-03-01T02:40:56.942Z,48.38
2024-03-01T02:42:58.773Z,45.80
2024-03-01T02:45:02.522Z,43.80
2024-03-01T02:47:04.374Z,48.60
2024-03-01T02:49:06.531Z,45.90
2024-03-01T02:51:08.518Z,45.85
2024-03-01T02:53:10.264Z,49.53
2024-03-01T02:55:12.228Z,51.00
2024-03-01T02:57:14.103Z,45.72
2024-03-01T02:59:15.835Z,48.63
2024-03-01T03:01:17.847Z,47.70
2024-03-01T03:03:19.659Z,48.55
2024-03-01T03:05:21.504Z,47.70
2024-03-01T03:07:23.461Z,42.17
2024-03-01T03:09:25.257Z,50.75
2024-03-01T03:11:27.022Z,47.33
2024-03-01T03:13:29.048Z,49.53
2024-03-01T03:15:30.893Z,47.92
2024-03-01T03:17:32.819Z,41.75
2024-03-01T03:19:35.868Z,46.05
2024-03-01T03:21:37.855Z,48.78
2024-03-01T03:23:40.063Z,43.13
2024-03-01T03:25:41.768Z,41.22
2024-03-01T03:27:44.619Z,47.08
2024-03-01T03:29:46.868Z,44.20
2024-03-01T03:31:48.577Z,46.72
2024-03-01T03:33:50.542Z,43.63
2024-03-01T03:35:52.361Z,47.13
2024-03-01T03:37:54.089Z,45.28
2024-03-01T03:39:55.954Z,47.78
2024-03-01T03:41:57.737Z,43.13
2024-03-01T03:43:59.532Z,39.47
2024-03-01T03:46:01.687Z,44.25
2024-03-01T03:48:05.842Z,38.00
2024-03-01T03:50:08.754Z,38.80
2024-03-01T03:52:10.702Z,36.07
2024-03-01T03:54:16.815Z,34.90
2024-03-01T03:56:18.799Z,36.13
2024-03-01T03:58:20.560Z,33.88
2024-03-01T04:00:22.424Z,41.03
2024-03-01T04:02:24.302Z,46.25
2024-03-01T04:04:26.604Z,43.60
2024-03-01T04:06:28.638Z,47.78
2024-03-01T04:08:30.678Z,46.83
2024-03-01T04:10:35.352Z,43.65
2024-03-01T04:12:37.724Z,48.80
2024-03-01T04:14:39.593Z,44.15
2024-03-01T04:16:41.404Z,48.13
2024-03-01T04:18:43.250Z,47.53
2024-03-01T04:20:45.554Z,64.47
2024-03-01T04:22:47.384Z,49.08
2024-03-01T04:24:49.765Z,46.15
2024-03-01T04:26:51.675Z,44.40
2024-03-01T04:28:53.614Z,45.08
2024-03-01T04:30:55.851Z,46.05
2024-03-01T04:32:57.933Z,45.80
2024-03-01T04:34:59.687Z,47.20
2024-03-01T04:37:01.567Z,48.22
2024-03-01T04:39:07.476Z,51.72
2024-03-01T04:41:16.990Z,46.20
2024-03-01T04:43:18.842Z,48.20
2024-03-01T04:45:20.924Z,45.85
2024-03-01T04:47:22.963Z,45.50
2024-03-01T04:49:24.981Z,45.88
2024-03-01T04:51:26.905Z,46.08
2024-03-01T04:53:29.236Z,45.40
2024-03-01T04:55:31.145Z,42.20
2024-03-01T04:57:33.259Z,51.20
2024-03-01T04:59:40.019Z,45.80
2024-03-01T05:01:43.159Z,42.08
2024-03-01T05:03:46.027Z,46.60
2024-03-01T05:05:48.094Z,48.55
2024-03-01T05:07:50.152Z,50.17
2024-03-01T05:09:52.074Z,46.00
2024-03-01T05:11:54.592Z,41.70
2024-03-01T05:13:56.449Z,45.20
2024-03-01T05:16:00.793Z,42.25
2024-03-01T05:18:02.648Z,43.50
2024-03-01T05:20:12.182Z,40.28
2024-03-01T05:22:14.733Z,43.60
2024-03-01T05:24:16.580Z,35.85
2024-03-01T05:26:19.124Z,38.22
2024-03-01T05:28:21.105Z,35.92
2024-03-01T05:30:36.070Z,40.38
2024-03-01T05:32:48.302Z,51.90
2024-03-01T05:34:50.159Z,45.03
2024-03-01T05:36:52.050Z,44.88
2024-03-01T05:38:54.114Z,47.97
2024-03-01T05:40:56.319Z,45.40
2024-03-01T05:42:58.796Z,58.92
2024-03-01T05:45:00.687Z,46.83
2024-03-01T05:47:03.043Z,41.75
2024-03-01T05:49:05.521Z,46.90
2024-03-01T05:51:07.384Z,43.78
2024-03-01T05:53:16.038Z,45.55
2024-03-01T05:55:18.823Z,44.58
2024-03-01T05:57:20.681Z,54.50
2024-03-01T05:59:24.030Z,48.00
2024-03-01T06:01:27.049Z,54.92
2024-03-01T06:03:29.218Z,49.53
2024-03-01T06:05:31.058Z,51.80
2024-03-01T06:07:32.881Z,44.20
2024-03-01T06:09:34.778Z,47.45
2024-03-01T06:11:36.661Z,44.05
2024-03-01T06:13:39.682Z,41.05
2024-03-01T06:15:41.738Z,52.55
2024-03-01T06:17:43.996Z,51.60
2024-03-01T06:19:45.848Z,55.65
2024-03-01T06:21:47.757Z,46.17
2024-03-01T06:23:50.064Z,46.33
2024-03-01T06:25:52.353Z,48.47
2024-03-01T06:27:54.133Z,51.15
2024-03-01T06:29:56.000Z,51.55
2024-03-01T06:31:58.111Z,40.17
2024-03-01T06:34:00.055Z,52.33
2024-03-01T06:36:02.480Z,45.53
2024-03-01T06:38:05.266Z,49.38
2024-03-01T06:40:11.122Z,50.25
2024-03-01T06:42:13.311Z,51.25
2024-03-01T06:44:15.617Z,48.10
2024-03-01T06:46:17.652Z,48.17
2024-03-01T06:48:22.346Z,50.03
2024-03-01T06:50:24.448Z,50.65
2024-03-01T06:52:27.276Z,51.97
2024-03-01T06:54:29.142Z,55.67
2024-03-01T06:56:30.912Z,51.40
2024-03-01T06:58:32.869Z,39.28
2024-03-01T07:00:34.864Z,42.72
2024-03-01T07:02:36.710Z,43.95
2024-03-01T07:04:38.613Z,38.38
2024-03-01T07:06:40.426Z,38.10
2024-03-01T07:08:43.557Z,37.05
2024-03-01T07:10:46.089Z,33.17
2024-03-01T07:12:48.512Z,38.95
2024-03-01T07:14:50.535Z,38.72
2024-03-01T07:16:52.284Z,36.08
2024-03-01T07:18:54.191Z,39.30
2024-03-01T07:20:56.078Z,35.20
2024-03-01T07:22:57.925Z,45.50
2024-03-01T07:24:59.713Z,32.58
2024-03-01T07:27:01.567Z,34.17
2024-03-01T07:29:03.705Z,34.45
2024-03-01T07:31:06.252Z,32.47
2024-03-01T07:33:08.219Z,32.92
2024-03-01T07:35:10.114Z,35.25
2024-03-01T07:37:13.476Z,35.80
2024-03-01T07:39:15.955Z,34.45
2024-03-01T07:41:19.888Z,33.85
2024-03-01T07:43:22.021Z,37.17
2024-03-01T07:45:23.956Z,34.83
2024-03-01T07:47:31.192Z,38.75
2024-03-01T07:49:34.388Z,35.85
2024-03-01T07:51:36.388Z,34.47
2024-03-01T07:53:38.992Z,40.90
2024-03-01T07:55:41.348Z,41.22
2024-03-01T07:57:43.238Z,39.92
2024-03-01T07:59:44.938Z,45.17
2024-03-01T08:01:47.250Z,41.40
2024-03-01T08:03:49.232Z,45.83
2024-03-01T08:05:51.305Z,41.03
2024-03-01T08:07:53.180Z,38.42
2024-03-01T08:09:55.754Z,38.80
2024-03-01T08:11:57.844Z,45.95
2024-03-01T08:14:01.372Z,49.53
2024-03-01T08:16:05.856Z,53.20
2024-03-01T08:18:19.679Z,41.97
2024-03-01T08:21:09.144Z,51.97
2024-03-01T08:23:12.904Z,42.67
2024-03-01T08:25:14.710Z,46.47
2024-03-01T08:27:21.157Z,44.40
2024-03-01T08:29:23.083Z,41.40
2024-03-01T08:31:30.150Z,39.95
2024-03-01T08:33:34.435Z,50.35
2024-03-01T08:35:37.395Z,45.45
2024-03-01T08:37:39.662Z,46.10
2024-03-01T08:39:42.095Z,46.97
2024-03-01T08:41:53.849Z,38.65
2024-03-01T08:43:58.396Z,36.90
2024-03-01T08:46:02.775Z,37.63
2024-03-01T08:48:13.546Z,39.00
2024-03-01T08:50:24.894Z,40.03
2024-03-01T08:52:39.753Z,42.67
2024-03-01T08:54:44.068Z,39.15
2024-03-01T08:56:54.403Z,39.20
2024-03-01T08:58:57.453Z,39.97
2024-03-01T09:00:59.465Z,39.95
2024-03-01T09:03:01.298Z,40.47
2024-03-01T09:05:03.076Z,43.47
2024-03-01T09:07:14.833Z,38.97
2024-03-01T09:09:22.979Z,40.15
2024-03-01T09:11:24.802Z,39.58
2024-03-01T09:13:27.819Z,32.40
2024-03-01T09:15:42.052Z,34.30
2024-03-01T09:19:51.131Z,33.00
2024-03-01T09:21:53.347Z,45.03
2024-03-01T09:23:55.342Z,39.03
2024-03-01T09:26:01.376Z,38.33
2024-03-01T09:28:03.680Z,40.60
2024-03-01T09:30:12.577Z,37.75
2024-03-01T09:32:17.616Z,37.58
2024-03-01T09:34:20.258Z,40.80
2024-03-01T09:36:22.663Z,40.58
2024-03-01T09:38:24.850Z,38.88
2024-03-01T09:41:02.572Z,42.38
2024-03-01T09:43:58.693Z,44.42
2024-03-01T09:46:19.974Z,42.45
2024-03-01T09:49:01.194Z,41.78
2024-03-01T09:51:32.166Z,39.17
2024-03-01T09:53:59.950Z,46.45
2024-03-01T09:56:27.382Z,42.65
2024-03-01T09:59:00.714Z,40.80
2024-03-01T10:01:16.222Z,38.58
2024-03-01T10:03:31.620Z,41.78
2024-03-01T10:06:09.635Z,37.70
2024-03-01T10:08:18.193Z,39.90
2024-03-01T10:11:10.086Z,37.30
2024-03-01T10:13:35.193Z,42.00
2024-03-01T10:16:01.375Z,38.03
2024-03-01T10:18:11.696Z,43.20
2024-03-01T10:20:13.441Z,46.35
2024-03-01T10:22:18.699Z,40.83
2024-03-01T10:24:49.643Z,37.42
2024-03-01T10:27:03.135Z,43.42
2024-03-01T10:29:27.251Z,39.50
2024-03-01T10:31:45.125Z,38.58
2024-03-01T10:33:54.615Z,39.53
2024-03-01T10:36:01.430Z,37.67
2024-03-01T10:38:09.151Z,34.08
2024-03-01T10:40:20.080Z,38.97
2024-03-01T10:42:26.836Z,33.88
2024-03-01T10:44:38.671Z,33.05
2024-03-01T10:46:58.521Z,36.58
2024-03-01T10:49:14.303Z,35.70
2024-03-01T10:51:17.248Z,36.45
2024-03-01T10:53:34.936Z,41.00
2024-03-01T10:55:39.403Z,38.45
2024-03-01T10:58:01.029Z,38.50
2024-03-01T11:00:13.962Z,38.05
2024-03-01T11:02:24.612Z,37.03
2024-03-01T11:04:45.951Z,35.22
2024-03-01T11:07:03.587Z,39.25
2024-03-01T11:09:14.434Z,37.20
2024-03-01T11:11:25.303Z,41.60
2024-03-01T11:13:29.328Z,34.50
2024-03-01T11:15:32.864Z,36.70
2024-03-01T11:17:36.917Z,40.15
2024-03-01T11:19:40.983Z,31.83
2024-03-01T11:21:49.561Z,35.28
2024-03-01T11:24:15.522Z,32.55
2024-03-01T11:26:27.446Z,35.80
2024-03-01T11:28:31.103Z,34.00
2024-03-01T11:30:43.964Z,33.15
2024-03-01T11:32:47.591Z,48.85
2024-03-01T11:35:13.083Z,36.88
2024-03-01T11:37:53.443Z,32.80
2024-03-01T11:40:07.373Z,33.92
2024-03-01T11:42:34.487Z,39.65
2024-03-01T11:44:47.156Z,36.08
2024-03-01T11:46:58.885Z,36.97
2024-03-01T11:49:06.669Z,35.33
2024-03-01T11:51:59.338Z,31.38
2024-03-01T11:54:16.618Z,40.13
2024-03-01T11:56:29.925Z,38.45
2024-03-01T11:58:38.848Z,35.15
2024-03-01T12:01:28.526Z,39.80
2024-03-01T12:04:04.171Z,31.88
2024-03-01T12:06:24.087Z,33.22
2024-03-01T12:08:44.641Z,33.95
2024-03-01T12:11:11.234Z,35.88
2024-03-01T12:13:18.351Z,38.33
2024-03-01T12:15:41.831Z,33.55
2024-03-01T12:18:17.728Z,34.17
2024-03-01T12:20:19.798Z,32.28
2024-03-01T12:22:32.800Z,32.25
2024-03-01T12:24:36.781Z,32.72
2024-03-01T12:26:53.510Z,30.40
2024-03-01T12:29:07.002Z,31.40
2024-03-01T12:31:53.343Z,28.50
2024-03-01T12:34:08.829Z,33.80
2024-03-01T12:36:36.553Z,32.63
2024-03-01T12:38:44.958Z,27.13
2024-03-01T12:41:11.366Z,28.20
2024-03-01T12:43:47.711Z,31.77
2024-03-01T12:46:01.049Z,28.98
2024-03-01T12:48:15.911Z,31.07
2024-03-01T12:50:24.815Z,33.72
2024-03-01T12:52:38.059Z,31.75
2024-03-01T12:54:52.099Z,37.88
2024-03-01T12:57:03.813Z,30.77
2024-03-01T12:59:35.928Z,30.48
2024-03-01T13:02:08.796Z,32.22
2024-03-01T13:04:30.253Z,29.88
2024-03-01T13:06:32.884Z,27.10
2024-03-01T13:08:47.367Z,76.18
2024-03-01T13:10:49.357Z,37.03
2024-03-01T13:12:57.411Z,30.33
2024-03-01T13:15:14.933Z,30.38
2024-03-01T13:17:29.416Z,27.67
2024-03-01T13:19:41.293Z,30.80
2024-03-01T13:21:51.015Z,33.53
2024-03-01T13:24:04.815Z,33.92
2024-03-01T13:26:24.446Z,40.65
2024-03-01T13:28:30.539Z,27.85
2024-03-01T13:30:37.586Z,29.35
2024-03-01T13:32:42.702Z,31.33
2024-03-01T13:34:50.847Z,26.55
2024-03-01T13:37:11.320Z,30.40
2024-03-01T13:39:27.471Z,29.90
2024-03-01T13:41:31.790Z,28.98
2024-03-01T13:43:41.406Z,37.47
2024-03-01T13:45:45.359Z,34.10
2024-03-01T13:50:23.736Z,27.80
2024-03-01T13:52:25.909Z,28.90
2024-03-01T13:54:33.716Z,31.17
2024-03-01T13:56:36.132Z,29.27
2024-03-01T13:58:38.001Z,26.65
2024-03-01T14:00:49.863Z,27.48
2024-03-01T14:02:55.038Z,31.63
2024-03-01T14:05:04.216Z,30.33
2024-03-01T14:07:14.760Z,27.05
2024-03-01T14:09:19.360Z,38.05
2024-03-01T14:11:21.605Z,28.35
2024-03-01T14:13:27.416Z,28.95
2024-03-01T14:15:29.442Z,31.23
2024-03-01T14:17:31.231Z,26.00
2024-03-01T14:19:33.228Z,28.75
2024-03-01T14:21:35.070Z,29.70
2024-03-01T14:23:38.417Z,29.38
2024-03-01T14:25:40.262Z,26.25
2024-03-01T14:27:45.659Z,34.30
2024-03-01T14:29:47.488Z,25.52
2024-03-01T14:32:16.063Z,35.67
2024-03-01T14:34:19.710Z,30.02
2024-03-01T14:36:21.540Z,31.48
2024-03-01T14:38:23.625Z,30.55
2024-03-01T14:40:28.033Z,27.00
2024-03-01T14:42:29.991Z,26.98
2024-03-01T14:44:31.882Z,29.23
2024-03-01T14:46:44.477Z,37.30
2024-03-01T14:48:48.059Z,29.98
2024-03-01T14:50:58.575Z,29.95
2024-03-01T14:53:10.407Z,30.05
2024-03-01T14:55:12.806Z,30.58
2024-03-01T14:57:18.341Z,30.17
2024-03-01T14:59:20.767Z,35.20
2024-03-01T15:01:22.782Z,28.85
2024-03-01T15:03:29.235Z,32.78
2024-03-01T15:05:30.977Z,31.83
2024-03-01T15:07:32.900Z,28.35
2024-03-01T15:09:45.213Z,35.38
2024-03-01T15:11:47.155Z,30.92
2024-03-01T15:13:50.422Z,34.47
2024-03-01T15:15:52.288Z,35.50
2024-03-01T15:18:04.980Z,31.08
2024-03-01T15:20:08.123Z,33.78
2024-03-01T15:22:13.858Z,31.08
2024-03-01T15:24:20.105Z,37.83
2024-03-01T15:26:21.946Z,30.20
2024-03-01T15:28:23.747Z,33.15
2024-03-01T15:30:29.550Z,33.85
2024-03-01T15:32:31.474Z,34.67
2024-03-01T15:34:33.792Z,32.55
2024-03-01T15:36:35.879Z,33.92
2024-03-01T15:38:37.994Z,38.53
2024-03-01T15:40:40.030Z,30.67
2024-03-01T15:42:42.109Z,35.15
2024-03-01T15:44:43.987Z,37.45
2024-03-01T15:46:47.967Z,37.80
2024-03-01T15:48:49.981Z,34.88
2024-03-01T15:50:51.748Z,34.20
2024-03-01T15:52:56.051Z,42.67
2024-03-01T15:54:58.218Z,37.17
2024-03-01T15:57:00.136Z,37.33
2024-03-01T15:59:02.095Z,37.47
2024-03-01T16:01:09.255Z,39.00
2024-03-01T16:03:11.180Z,42.67
2024-03-01T16:05:14.313Z,33.38
2024-03-01T16:07:16.230Z,35.25
2024-03-01T16:09:18.033Z,41.40
2024-03-01T16:11:20.634Z,43.47
2024-03-01T16:13:34.019Z,39.40
2024-03-01T16:15:35.912Z,39.33
2024-03-01T16:17:37.772Z,35.78
2024-03-01T16:19:39.941Z,37.70
2024-03-01T16:21:41.761Z,37.42
2024-03-01T16:23:44.682Z,36.83
2024-03-01T16:25:46.610Z,40.33
2024-03-01T16:27:48.452Z,42.05
2024-03-01T16:29:50.679Z,34.80
2024-03-01T16:31:52.579Z,38.22
2024-03-01T16:33:54.502Z,40.28
2024-03-01T16:36:04.914Z,39.17
2024-03-01T16:38:07.409Z,43.25
2024-03-01T16:40:11.529Z,36.42
2024-03-01T16:42:28.490Z,44.95
2024-03-01T16:44:35.602Z,46.40
2024-03-01T16:46:38.498Z,40.00
2024-03-01T16:48:49.726Z,39.43
2024-03-01T16:50:51.826Z,41.60
2024-03-01T16:52:54.463Z,40.72
2024-03-01T16:54:56.307Z,36.88
2024-03-01T16:57:12.375Z,38.72
2024-03-01T16:59:14.593Z,37.25
2024-03-01T17:01:44.779Z,40.25
2024-03-01T17:03:46.616Z,34.72
2024-03-01T17:05:48.577Z,36.00
2024-03-01T17:07:51.965Z,41.72
2024-03-01T17:09:54.233Z,35.65
2024-03-01T17:11:59.338Z,37.53
2024-03-01T17:14:01.646Z,37.20
2024-03-01T17:16:06.263Z,43.22
2024-03-01T17:18:12.621Z,40.75
2024-03-01T17:20:20.398Z,39.85
2024-03-01T17:22:22.320Z,36.38
2024-03-01T17:24:24.173Z,33.20
2024-03-01T17:26:26.077Z,35.10
2024-03-01T17:28:28.019Z,34.58
2024-03-01T17:30:29.751Z,37.10
2024-03-01T17:32:31.527Z,36.90
2024-03-01T17:34:33.387Z,38.90
2024-03-01T17:36:35.200Z,33.45
2024-03-01T17:38:37.289Z,36.50
2024-03-01T17:40:39.340Z,34.92
2024-03-01T17:42:41.784Z,33.63
2024-03-01T17:44:43.909Z,36.08
2024-03-01T17:46:45.975Z,36.80
2024-03-01T17:48:47.926Z,37.55
2024-03-01T17:50:50.198Z,37.70
2024-03-01T17:52:52.089Z,35.55
2024-03-01T17:54:54.622Z,37.17
2024-03-01T17:56:56.503Z,39.20
2024-03-01T17:58:58.344Z,38.92
2024-03-01T18:01:00.281Z,38.75
2024-03-01T18:03:02.436Z,37.00
2024-03-01T18:05:04.718Z,38.75
2024-03-01T18:07:07.148Z,46.17
2024-03-01T18:09:08.891Z,40.35
2024-03-01T18:11:10.807Z,37.75
2024-03-01T18:13:12.773Z,37.35
2024-03-01T18:15:15.079Z,35.92
2024-03-01T18:17:16.940Z,37.17
2024-03-01T18:19:19.961Z,35.78
2024-03-01T18:21:21.699Z,38.83
2024-03-01T18:23:26.363Z,42.22
2024-03-01T18:25:28.900Z,37.10
2024-03-01T18:27:30.683Z,38.50
2024-03-01T18:29:32.816Z,39.70
2024-03-01T18:31:34.720Z,35.78
2024-03-01T18:33:36.750Z,38.65
2024-03-01T18:35:38.561Z,35.70
2024-03-01T18:37:40.938Z,41.53
2024-03-01T18:39:42.862Z,37.10
2024-03-01T18:41:44.746Z,39.13
2024-03-01T18:43:46.649Z,39.88
2024-03-01T18:45:48.424Z,41.08
2024-03-01T18:47:50.289Z,39.40
2024-03-01T18:49:52.183Z,40.17
2024-03-01T18:51:56.721Z,36.85
2024-03-01T18:53:59.882Z,35.30
2024-03-01T18:56:03.564Z,32.20
2024-03-01T18:58:05.500Z,37.60
2024-03-01T19:00:08.549Z,39.85
2024-03-01T19:02:13.937Z,36.67
2024-03-01T19:04:15.984Z,36.60
2024-03-01T19:06:17.777Z,38.55
2024-03-01T19:08:19.606Z,36.88
2024-03-01T19:10:21.652Z,38.90
2024-03-01T19:12:24.976Z,41.22
2024-03-01T19:14:26.937Z,41.45
2024-03-01T19:16:32.563Z,41.13
2024-03-01T19:18:34.793Z,40.35
2024-03-01T19:20:36.705Z,40.08
2024-03-01T19:22:38.516Z,37.05
2024-03-01T19:24:40.360Z,40.50
2024-03-01T19:26:42.282Z,37.88
2024-03-01T19:28:44.083Z,36.15
2024-03-01T19:30:46.034Z,38.30
2024-03-01T19:32:48.114Z,38.40
2024-03-01T19:34:50.470Z,39.80
2024-03-01T19:36:52.630Z,38.25
2024-03-01T19:38:54.560Z,38.38
2024-03-01T19:40:56.455Z,39.47
2024-03-01T19:42:58.245Z,37.40
2024-03-01T19:45:00.030Z,41.40
2024-03-01T19:47:03.698Z,37.92
2024-03-01T19:49:05.639Z,37.80
2024-03-01T19:51:07.553Z,39.88
2024-03-01T19:53:09.465Z,39.15
2024-03-01T19:55:11.288Z,37.40
2024-03-01T19:57:13.216Z,37.25
2024-03-01T19:59:14.922Z,38.38
2024-03-01T20:01:16.893Z,42.35
2024-03-01T20:03:20.372Z,46.42
2024-03-01T20:05:22.305Z,35.63
2024-03-01T20:07:24.377Z,37.75
2024-03-01T20:09:26.948Z,39.08
2024-03-01T20:11:28.772Z,35.17
2024-03-01T20:13:30.533Z,38.58
2024-03-01T20:15:32.406Z,34.05
2024-03-01T20:17:34.273Z,34.47
2024-03-01T20:19:36.186Z,34.75
2024-03-01T20:21:38.000Z,38.60
2024-03-01T20:23:45.910Z,35.28
2024-03-01T20:25:51.593Z,39.35
2024-03-01T20:27:53.658Z,32.63
2024-03-01T20:29:55.549Z,34.05
2024-03-01T20:31:57.703Z,32.45
2024-03-01T20:33:59.833Z,31.00
2024-03-01T20:36:01.720Z,30.27
2024-03-01T20:38:04.955Z,26.98
2024-03-01T20:40:08.278Z,29.92
2024-03-01T20:42:11.276Z,31.05
2024-03-01T20:44:13.133Z,26.75
2024-03-01T20:46:14.991Z,26.67
2024-03-01T20:48:17.027Z,26.95
2024-03-01T20:50:20.685Z,31.63
2024-03-01T20:52:22.464Z,23.88
2024-03-01T20:54:24.633Z,29.30
2024-03-01T20:56:26.565Z,26.45
2024-03-01T20:58:28.383Z,24.98
2024-03-01T21:00:31.216Z,27.20
2024-03-01T21:02:34.027Z,27.15
2024-03-01T21:04:35.932Z,25.73
2024-03-01T21:06:37.755Z,27.10
2024-03-01T21:08:39.630Z,29.65
2024-03-01T21:10:41.484Z,28.67
2024-03-01T21:12:43.515Z,28.42
2024-03-01T21:14:45.411Z,28.27
2024-03-01T21:16:47.293Z,30.13
2024-03-01T21:18:49.501Z,31.85
2024-03-01T21:20:51.436Z,31.17
2024-03-01T21:22:54.414Z,33.33
2024-03-01T21:24:56.472Z,37.60
2024-03-01T21:26:58.401Z,33.88
2024-03-01T21:29:00.826Z,33.78
2024-03-01T21:31:03.203Z,31.77
2024-03-01T21:33:07.520Z,30.58
2024-03-01T21:35:09.497Z,33.58
2024-03-01T21:37:11.911Z,31.88
2024-03-01T21:39:15.386Z,30.85
2024-03-01T21:41:17.794Z,30.13
2024-03-01T21:43:19.593Z,29.92
2024-03-01T21:45:21.966Z,29.63
2024-03-01T21:47:25.317Z,31.90
2024-03-01T21:49:27.055Z,29.50
2024-03-01T21:51:28.907Z,33.55
2024-03-01T21:53:30.739Z,32.85
2024-03-01T21:55:32.701Z,32.55
2024-03-01T21:57:35.545Z,31.05
2024-03-01T21:59:37.364Z,34.05
2024-03-01T22:01:39.819Z,31.45
2024-03-01T22:03:41.754Z,31.48
2024-03-01T22:05:45.812Z,30.58
2024-03-01T22:07:51.330Z,32.90
2024-03-01T22:09:53.919Z,31.67
2024-03-01T22:11:55.717Z,32.25
2024-03-01T22:13:58.116Z,30.98
2024-03-01T22:16:00.046Z,30.85
2024-03-01T22:18:02.119Z,30.63
2024-03-01T22:20:04.708Z,28.77
2024-03-01T22:22:06.516Z,33.72
2024-03-01T22:24:08.762Z,33.20
2024-03-01T22:26:10.757Z,31.60
2024-03-01T22:28:13.497Z,35.35
2024-03-01T22:30:15.312Z,32.22
2024-03-01T22:32:17.901Z,32.95
2024-03-01T22:34:19.857Z,32.08
2024-03-01T22:36:21.724Z,31.80
2024-03-01T22:38:23.511Z,31.83
2024-03-01T22:40:25.410Z,33.13
2024-03-01T22:42:27.153Z,32.13
2024-03-01T22:44:28.946Z,32.78
2024-03-01T22:46:31.012Z,34.80
2024-03-01T22:48:33.528Z,35.72
2024-03-01T22:50:35.372Z,34.05
2024-03-01T22:52:38.342Z,38.40
2024-03-01T22:54:40.252Z,33.75
2024-03-01T22:56:43.859Z,36.20
2024-03-01T22:58:47.141Z,36.45
2024-03-01T23:00:50.325Z,34.55
2024-03-01T23:02:54.879Z,31.02
2024-03-01T23:04:56.956Z,33.40
2024-03-01T23:07:05.308Z,30.83
2024-03-01T23:09:12.590Z,30.17
2024-03-01T23:11:39.960Z,33.58
2024-03-01T23:13:42.013Z,32.40
2024-03-01T23:15:50.280Z,32.75
2024-03-01T23:17:52.815Z,33.47
2024-03-01T23:19:55.884Z,32.00
2024-03-01T23:21:57.917Z,26.83
2024-03-01T23:23:59.845Z,30.52
2024-03-01T23:26:01.684Z,28.95
2024-03-01T23:28:04.335Z,27.23
2024-03-01T23:30:08.365Z,27.02
2024-03-01T23:32:10.847Z,29.50
2024-03-01T23:34:12.652Z,26.67
2024-03-01T23:36:15.220Z,28.35
2024-03-01T23:38:17.248Z,28.50
2024-03-01T23:40:19.078Z,26.98
2024-03-01T23:42:20.995Z,25.15
2024-03-01T23:44:23.813Z,29.77
2024-03-01T23:46:25.543Z,28.55
2024-03-01T23:48:27.526Z,28.67
2024-03-01T23:50:29.339Z,28.08
2024-03-01T23:52:31.129Z,25.88
2024-03-01T23:54:33.247Z,34.22
2024-03-01T23:56:35.003Z,27.88
2024-03-01T23:58:41.127Z,33.53
